Time;durP1;ratioP1;P1;durP2;ratioP2;P2;SDS_P1;SDS_P2;PMS_P1;PMS_P2;Temp;Humidity;BMP_temperature;BMP_pressure;BME280_temperature;BME280_humidity;BME280_pressure;Samples;Min_cycle;Max_cycle;Signal;HPM_P1;HPM_P2
2022/09/13 00:00:30;;;;;;;3.87;2.93;;;15.80;99.90;;;;;;5035328;28;20226;-79
2022/09/13 00:02:58;;;;;;;3.13;2.83;;;15.80;99.90;;;;;;5055658;28;20221;-79
2022/09/13 00:05:25;;;;;;;4.80;3.10;;;15.80;99.90;;;;;;5057494;28;20236;-79
2022/09/13 00:07:53;;;;;;;3.83;3.10;;;15.70;99.90;;;;;;5055438;28;20220;-79
2022/09/13 00:10:23;;;;;;;4.10;3.43;;;15.80;99.90;;;;;;5056741;28;20232;-77
2022/09/13 00:12:50;;;;;;;3.77;3.27;;;15.80;99.90;;;;;;5044590;28;20233;-78
2022/09/13 00:15:17;;;;;;;3.13;2.87;;;15.70;99.90;;;;;;5061104;28;20328;-77
2022/09/13 00:17:44;;;;;;;4.80;3.07;;;15.70;99.90;;;;;;5059235;28;20254;-77
2022/09/13 00:20:11;;;;;;;3.40;2.97;;;15.70;99.90;;;;;;5055702;28;20224;-77
2022/09/13 00:22:38;;;;;;;3.87;3.03;;;15.70;99.90;;;;;;5056486;28;20222;-77
2022/09/13 00:25:08;;;;;;;3.50;2.93;;;15.70;99.90;;;;;;5061434;28;20236;-77
2022/09/13 00:27:35;;;;;;;3.83;3.00;;;15.70;99.90;;;;;;5042850;28;20225;-78
2022/09/13 00:30:02;;;;;;;3.43;3.13;;;15.70;99.90;;;;;;5055916;28;20593;-77
2022/09/13 00:32:29;;;;;;;4.90;3.30;;;15.70;99.90;;;;;;5054920;28;20574;-77
2022/09/13 00:34:56;;;;;;;4.07;3.03;;;15.70;99.90;;;;;;5058777;28;20590;-76
2022/09/13 00:37:22;;;;;;;4.53;3.20;;;15.70;99.90;;;;;;5053234;28;20296;-77
2022/09/13 00:39:49;;;;;;;3.20;2.90;;;15.60;99.90;;;;;;5058764;28;20227;-78
2022/09/13 00:42:25;;;;;;;4.87;3.50;;;15.70;99.90;;;;;;5039046;28;20315;-79
2022/09/13 00:44:57;;;;;;;3.63;3.00;;;15.60;99.90;;;;;;5059455;28;20229;-78
2022/09/13 00:47:29;;;;;;;4.60;3.73;;;15.60;99.90;;;;;;5059873;28;25456;-78
2022/09/13 00:49:59;;;;;;;4.67;3.60;;;15.60;99.90;;;;;;5056068;28;20560;-78
2022/09/13 00:52:29;;;;;;;4.30;3.70;;;15.60;99.90;;;;;;5061064;28;20228;-80
2022/09/13 00:55:01;;;;;;;5.33;3.83;;;15.60;99.90;;;;;;5060082;28;20296;-81
2022/09/13 00:57:34;;;;;;;4.90;4.17;;;15.50;99.90;;;;;;5041277;28;20610;-84
2022/09/13 01:00:08;;;;;;;4.30;3.60;;;15.50;99.90;;;;;;5060015;28;20251;-84
2022/09/13 01:02:35;;;;;;;4.43;4.03;;;15.40;99.90;;;;;;5060606;28;20226;-80
2022/09/13 01:05:02;;;;;;;4.07;3.63;;;15.30;99.90;;;;;;5063226;28;20229;-79
2022/09/13 01:07:29;;;;;;;4.43;3.80;;;15.20;99.90;;;;;;5059736;28;20227;-79
2022/09/13 01:09:57;;;;;;;4.37;3.97;;;15.10;99.90;;;;;;5056075;28;20219;-79
2022/09/13 01:12:33;;;;;;;4.03;3.60;;;15.00;99.90;;;;;;5062953;28;20305;-79
2022/09/13 01:15:03;;;;;;;7.00;4.40;;;15.00;99.90;;;;;;5056450;28;20237;-80
2022/09/13 01:17:31;;;;;;;4.47;4.07;;;14.90;99.90;;;;;;5045284;28;20233;-79
2022/09/13 01:19:59;;;;;;;4.77;4.00;;;14.90;99.90;;;;;;5056728;28;20236;-79
2022/09/13 01:22:49;;;;;;;4.80;4.40;;;14.80;99.90;;;;;;5055217;28;20229;-79
2022/09/13 01:25:50;;;;;;;5.00;4.27;;;14.80;99.90;;;;;;5060534;28;20236;-81
2022/09/13 01:28:55;;;;;;;4.57;4.17;;;14.70;99.90;;;;;;5058863;28;20652;-80
2022/09/13 01:31:28;;;;;;;6.93;4.43;;;14.70;99.90;;;;;;5062281;28;20217;-81
2022/09/13 01:34:09;;;;;;;5.53;4.23;;;14.70;99.90;;;;;;5042889;28;20216;-80
2022/09/13 01:36:51;;;;;;;5.20;4.67;;;14.60;99.90;;;;;;5062133;28;20218;-81
2022/09/13 01:39:26;;;;;;;5.63;3.97;;;14.60;99.90;;;;;;5059791;28;20227;-82
2022/09/13 01:42:05;;;;;;;4.87;4.47;;;14.50;99.90;;;;;;5060666;28;20683;-80
2022/09/13 01:44:47;;;;;;;5.20;4.70;;;14.50;99.90;;;;;;5054917;28;20227;-82
2022/09/13 01:47:26;;;;;;;4.70;4.20;;;14.50;99.90;;;;;;5057713;28;20220;-80
2022/09/13 01:50:01;;;;;;;6.03;4.73;;;14.50;99.90;;;;;;5061100;28;20254;-81
2022/09/13 01:52:35;;;;;;;5.57;4.90;;;14.40;99.90;;;;;;5058511;28;20266;-81
2022/09/13 01:55:07;;;;;;;6.77;4.97;;;14.40;99.90;;;;;;5062331;28;20235;-83
2022/09/13 01:57:40;;;;;;;4.83;4.30;;;14.40;99.90;;;;;;5064050;28;20762;-82
2022/09/13 02:00:11;;;;;;;5.73;4.50;;;14.40;99.90;;;;;;5061052;28;20784;-83
2022/09/13 02:02:46;;;;;;;6.40;4.73;;;14.40;99.90;;;;;;5060618;28;20233;-83
2022/09/13 02:05:17;;;;;;;6.23;4.87;;;14.40;99.90;;;;;;5062515;28;20224;-83
2022/09/13 02:08:00;;;;;;;5.27;4.77;;;14.40;99.90;;;;;;5059324;28;20228;-84
2022/09/13 02:10:33;;;;;;;5.70;4.87;;;14.40;99.90;;;;;;5041660;28;20291;-83
2022/09/13 02:13:06;;;;;;;5.37;4.87;;;14.40;99.90;;;;;;5042759;28;20849;-84
2022/09/13 02:15:37;;;;;;;6.83;4.67;;;14.40;99.90;;;;;;5059720;28;20292;-82
2022/09/13 02:18:10;;;;;;;6.43;5.40;;;14.30;99.90;;;;;;5062359;28;20232;-82
2022/09/13 02:20:42;;;;;;;5.53;4.97;;;14.40;99.90;;;;;;5054790;28;20216;-82
2022/09/13 02:23:13;;;;;;;5.07;4.33;;;14.40;99.90;;;;;;5061579;28;20312;-82
2022/09/13 02:25:41;;;;;;;9.07;4.87;;;14.40;99.90;;;;;;5059165;28;20386;-82
2022/09/13 02:28:12;;;;;;;6.43;5.20;;;14.40;99.90;;;;;;5060414;28;20213;-84
2022/09/13 02:30:43;;;;;;;5.87;5.10;;;14.40;99.90;;;;;;5060710;28;20324;-82
2022/09/13 02:33:14;;;;;;;5.80;5.00;;;14.40;99.90;;;;;;5040921;28;20216;-84
2022/09/13 02:35:46;;;;;;;7.20;5.10;;;14.40;99.90;;;;;;5045670;28;20225;-82
2022/09/13 02:38:16;;;;;;;6.27;5.00;;;14.40;99.90;;;;;;5038292;28;20274;-80
2022/09/13 02:40:52;;;;;;;5.40;4.70;;;14.40;99.90;;;;;;5039525;28;20228;-82
2022/09/13 02:43:25;;;;;;;5.60;5.03;;;14.40;99.90;;;;;;5061239;28;20227;-79
2022/09/13 02:46:02;;;;;;;5.83;5.33;;;14.40;99.90;;;;;;5060536;28;20225;-83
2022/09/13 02:48:41;;;;;;;7.17;4.87;;;14.40;99.90;;;;;;5058422;28;20229;-80
2022/09/13 02:51:15;;;;;;;7.63;5.27;;;14.40;99.90;;;;;;5058168;28;20224;-82
2022/09/13 02:53:49;;;;;;;6.23;5.57;;;14.40;99.90;;;;;;5059273;28;20225;-81
2022/09/13 02:56:23;;;;;;;6.47;5.30;;;14.50;99.90;;;;;;5060836;28;20248;-81
2022/09/13 02:58:56;;;;;;;5.97;5.10;;;14.50;99.90;;;;;;5058223;28;20228;-78
2022/09/13 03:01:24;;;;;;;7.53;5.40;;;14.50;99.90;;;;;;5058659;28;20231;-78
2022/09/13 03:03:53;;;;;;;8.13;5.60;;;14.50;99.90;;;;;;5056291;28;20209;-78
2022/09/13 03:06:24;;;;;;;5.90;5.30;;;14.50;99.90;;;;;;5061682;28;20273;-80
2022/09/13 03:08:51;;;;;;;6.00;4.90;;;14.50;99.90;;;;;;5033140;28;20234;-80
2022/09/13 03:11:30;;;;;;;6.20;5.47;;;14.50;99.90;;;;;;5061814;28;20241;-81
2022/09/13 03:14:10;;;;;;;6.03;5.43;;;14.40;99.90;;;;;;5058842;28;20217;-81
2022/09/13 03:16:51;;;;;;;6.40;5.80;;;14.40;99.90;;;;;;5059701;28;20259;-80
2022/09/13 03:19:29;;;;;;;6.93;5.27;;;14.50;99.90;;;;;;5058386;28;20220;-80
2022/09/13 03:22:15;;;;;;;6.80;5.50;;;14.50;99.90;;;;;;5041253;28;20217;-80
2022/09/13 03:24:51;;;;;;;8.53;6.10;;;14.50;99.90;;;;;;5036831;28;20217;-81
2022/09/13 03:27:30;;;;;;;9.07;5.70;;;14.50;99.90;;;;;;5057667;28;20236;-81
2022/09/13 03:30:02;;;;;;;7.73;5.80;;;14.50;99.90;;;;;;5042801;28;20307;-80
2022/09/13 03:32:40;;;;;;;6.80;5.77;;;14.50;99.90;;;;;;5035047;28;20226;-80
2022/09/13 03:35:18;;;;;;;6.10;5.27;;;14.50;99.90;;;;;;5055631;28;20219;-80
2022/09/13 03:37:52;;;;;;;6.57;5.97;;;14.50;99.90;;;;;;5039218;28;20234;-81
2022/09/13 03:40:23;;;;;;;7.93;6.10;;;14.50;99.90;;;;;;5058258;28;20286;-80
2022/09/13 03:42:55;;;;;;;10.00;6.40;;;14.50;99.90;;;;;;5044129;28;20216;-79
2022/09/13 03:45:29;;;;;;;8.83;5.90;;;14.50;99.90;;;;;;5057925;28;20233;-80
2022/09/13 03:47:57;;;;;;;7.83;6.10;;;14.50;99.90;;;;;;5036633;28;20224;-80
2022/09/13 03:50:26;;;;;;;7.30;5.80;;;14.50;99.90;;;;;;5059013;28;20324;-78
2022/09/13 03:52:58;;;;;;;7.53;6.03;;;14.50;99.90;;;;;;5056742;28;20220;-78
2022/09/13 03:55:25;;;;;;;6.83;6.10;;;14.50;99.90;;;;;;5058828;28;20225;-78
2022/09/13 03:57:52;;;;;;;9.23;6.60;;;14.50;99.90;;;;;;5059304;28;20355;-79
2022/09/13 04:00:19;;;;;;;7.77;6.30;;;14.50;99.90;;;;;;5056392;28;20950;-80
2022/09/13 04:02:46;;;;;;;7.73;6.40;;;14.50;99.90;;;;;;5027921;28;20252;-80
2022/09/13 04:05:13;;;;;;;8.47;7.13;;;14.50;99.90;;;;;;5039943;28;21084;-81
2022/09/13 04:07:41;;;;;;;10.07;7.67;;;14.60;99.90;;;;;;5040633;28;20253;-81
2022/09/13 04:10:09;;;;;;;10.37;7.20;;;14.50;99.90;;;;;;5059259;28;20228;-78
2022/09/13 04:12:36;;;;;;;10.13;8.00;;;14.60;99.90;;;;;;5058542;28;20227;-79
2022/09/13 04:15:03;;;;;;;10.40;7.90;;;14.60;99.90;;;;;;5056500;28;20325;-80
2022/09/13 04:17:30;;;;;;;8.57;7.37;;;14.60;99.90;;;;;;5040509;28;20783;-80
2022/09/13 04:19:57;;;;;;;8.47;7.10;;;14.60;99.90;;;;;;5059864;28;20728;-80
2022/09/13 04:22:23;;;;;;;10.23;7.27;;;14.60;99.90;;;;;;5038924;28;20284;-81
2022/09/13 04:24:51;;;;;;;9.00;7.03;;;14.60;99.90;;;;;;5062930;28;20230;-81
2022/09/13 04:27:21;;;;;;;9.60;8.27;;;14.60;99.90;;;;;;5045931;28;20309;-80
2022/09/13 04:29:48;;;;;;;10.00;8.27;;;14.60;99.90;;;;;;5059594;28;20228;-79
2022/09/13 04:32:14;;;;;;;9.93;7.90;;;14.60;99.90;;;;;;5045976;28;20641;-81
2022/09/13 04:34:43;;;;;;;10.67;8.40;;;14.60;99.90;;;;;;5055608;28;20894;-80
2022/09/13 04:37:10;;;;;;;10.27;8.20;;;14.60;99.90;;;;;;5054712;28;20786;-80
2022/09/13 04:39:37;;;;;;;9.50;7.93;;;14.70;99.90;;;;;;5040576;28;20304;-80
2022/09/13 04:42:06;;;;;;;13.57;8.93;;;14.70;99.90;;;;;;5059503;28;20220;-79
2022/09/13 04:44:33;;;;;;;12.13;9.67;;;14.70;99.90;;;;;;5056501;28;20252;-79
2022/09/13 04:47:08;;;;;;;11.17;9.60;;;14.70;99.90;;;;;;5062565;28;20222;-81
2022/09/13 04:49:35;;;;;;;11.93;9.70;;;14.70;99.90;;;;;;5062550;28;20370;-81
2022/09/13 04:52:17;;;;;;;13.53;10.33;;;14.70;99.90;;;;;;5050246;28;20247;-79
2022/09/13 04:54:48;;;;;;;14.13;10.73;;;14.80;99.90;;;;;;5058375;28;20230;-80
2022/09/13 04:57:16;;;;;;;13.67;10.60;;;14.70;99.90;;;;;;5049821;28;20736;-80
2022/09/13 04:59:47;;;;;;;13.40;10.73;;;14.70;99.90;;;;;;5044646;28;20282;-80
2022/09/13 05:02:20;;;;;;;15.40;11.77;;;14.70;99.90;;;;;;5029957;28;20221;-79
2022/09/13 05:04:53;;;;;;;19.33;14.17;;;14.70;99.90;;;;;;5048977;28;20351;-80
2022/09/13 05:07:20;;;;;;;18.73;13.27;;;14.60;99.90;;;;;;5060609;28;20251;-80
2022/09/13 05:09:50;;;;;;;17.70;12.97;;;14.60;99.90;;;;;;5042358;28;20217;-81
2022/09/13 05:12:18;;;;;;;15.90;12.43;;;14.60;99.90;;;;;;5040311;28;20232;-79
2022/09/13 05:14:45;;;;;;;22.03;16.10;;;14.60;99.90;;;;;;5040881;28;20248;-81
2022/09/13 05:17:14;;;;;;;20.93;15.17;;;14.60;99.90;;;;;;5056177;28;20231;-80
2022/09/13 05:19:40;;;;;;;22.33;15.60;;;14.60;99.90;;;;;;5056806;28;20223;-80
2022/09/13 05:22:07;;;;;;;20.57;15.80;;;14.60;99.90;;;;;;5043315;28;20230;-85
2022/09/13 05:24:34;;;;;;;21.37;16.27;;;14.60;99.90;;;;;;5046018;28;20229;-84
2022/09/13 05:27:00;;;;;;;22.30;16.83;;;14.60;99.90;;;;;;5041525;28;20229;-83
2022/09/13 05:29:28;;;;;;;23.43;17.17;;;14.60;99.90;;;;;;5060193;28;20238;-83
2022/09/13 05:31:55;;;;;;;23.73;17.63;;;14.60;99.90;;;;;;5045306;28;20222;-83
2022/09/13 05:34:22;;;;;;;26.37;18.23;;;14.60;99.90;;;;;;5040902;28;20912;-83
2022/09/13 05:36:49;;;;;;;26.10;18.83;;;14.70;99.90;;;;;;5064504;28;20321;-83
2022/09/13 05:39:17;;;;;;;26.43;18.57;;;14.70;99.90;;;;;;5063115;28;20282;-84
2022/09/13 05:41:44;;;;;;;27.77;18.80;;;14.70;99.90;;;;;;5064350;28;20231;-83
2022/09/13 05:44:11;;;;;;;25.87;18.67;;;14.70;99.90;;;;;;5038816;28;20365;-83
2022/09/13 05:46:39;;;;;;;26.30;19.00;;;14.70;99.90;;;;;;5049964;28;20232;-84
2022/09/13 05:49:06;;;;;;;26.73;18.77;;;14.80;99.90;;;;;;5053451;28;20901;-84
2022/09/13 05:51:33;;;;;;;27.57;19.40;;;14.80;99.90;;;;;;5046107;28;20722;-83
2022/09/13 05:53:59;;;;;;;24.77;19.03;;;14.80;99.90;;;;;;5057374;28;20227;-83
2022/09/13 05:56:29;;;;;;;27.30;19.77;;;14.90;99.90;;;;;;5044233;28;20781;-83
2022/09/13 05:58:59;;;;;;;26.37;19.27;;;14.90;99.90;;;;;;5042054;28;20232;-84
2022/09/13 06:01:28;;;;;;;26.50;19.83;;;15.00;99.90;;;;;;5062293;28;20722;-83
2022/09/13 06:03:59;;;;;;;25.77;19.70;;;15.00;99.90;;;;;;5042866;28;20264;-83
2022/09/13 06:06:26;;;;;;;25.30;19.20;;;15.10;99.90;;;;;;5060811;28;20373;-84
2022/09/13 06:08:54;;;;;;;26.90;19.07;;;15.10;99.90;;;;;;5062385;28;20225;-84
2022/09/13 06:11:20;;;;;;;27.30;19.40;;;15.10;99.90;;;;;;5062631;28;20715;-84
2022/09/13 06:13:50;;;;;;;27.40;18.77;;;15.20;99.90;;;;;;5040586;28;20862;-84
2022/09/13 06:16:17;;;;;;;25.17;17.83;;;15.30;99.90;;;;;;5043597;28;20383;-83
2022/09/13 06:18:44;;;;;;;26.77;18.77;;;15.40;99.90;;;;;;5048395;28;20314;-83
2022/09/13 06:21:18;;;;;;;24.17;17.87;;;15.40;99.90;;;;;;5045524;28;20214;-84
2022/09/13 06:23:45;;;;;;;22.37;17.37;;;15.50;99.90;;;;;;5061892;28;20724;-88
2022/09/13 06:26:14;;;;;;;27.30;17.20;;;15.50;99.90;;;;;;5066061;28;20218;-80
2022/09/13 06:28:41;;;;;;;25.70;18.67;;;15.50;99.90;;;;;;5040354;28;20227;-84
2022/09/13 06:31:09;;;;;;;22.33;16.27;;;15.60;99.90;;;;;;5063759;28;20222;-83
2022/09/13 06:33:38;;;;;;;22.30;16.17;;;15.60;99.90;;;;;;5064248;28;20683;-84
2022/09/13 06:36:07;;;;;;;20.67;15.80;;;15.70;99.90;;;;;;5043610;28;20258;-82
2022/09/13 06:38:35;;;;;;;23.47;17.17;;;15.80;99.90;;;;;;5060702;28;20269;-83
2022/09/13 06:41:03;;;;;;;22.03;15.27;;;15.80;99.90;;;;;;5045007;28;20226;-81
2022/09/13 06:43:30;;;;;;;21.83;15.63;;;15.90;99.90;;;;;;5046370;28;20284;-81
2022/09/13 06:46:01;;;;;;;23.20;16.33;;;16.00;99.90;;;;;;5034631;28;20229;-81
2022/09/13 06:48:31;;;;;;;21.33;14.50;;;16.00;99.90;;;;;;5054171;28;20251;-81
2022/09/13 06:50:58;;;;;;;21.90;15.87;;;16.10;99.90;;;;;;5041970;28;20853;-81
2022/09/13 06:53:27;;;;;;;21.83;15.33;;;16.10;99.90;;;;;;5037583;28;20221;-81
2022/09/13 06:56:02;;;;;;;23.37;16.03;;;16.20;99.90;;;;;;5042000;28;20238;-82
2022/09/13 06:58:30;;;;;;;20.83;15.20;;;16.30;99.90;;;;;;5056731;28;20312;-80
2022/09/13 07:01:10;;;;;;;20.13;14.73;;;16.40;99.90;;;;;;5041253;28;20843;-81
2022/09/13 07:03:38;;;;;;;18.83;14.63;;;16.50;99.90;;;;;;5038624;28;20309;-82
2022/09/13 07:06:10;;;;;;;18.43;14.53;;;16.60;99.90;;;;;;5059744;28;20226;-82
2022/09/13 07:08:37;;;;;;;18.93;14.17;;;16.70;99.90;;;;;;5045294;28;20316;-82
2022/09/13 07:11:05;;;;;;;20.37;13.23;;;16.80;99.90;;;;;;5059055;28;20268;-81
2022/09/13 07:13:32;;;;;;;19.37;13.17;;;16.90;99.90;;;;;;5059665;28;20256;-81
2022/09/13 07:16:01;;;;;;;20.80;14.37;;;17.00;99.90;;;;;;5047530;28;20297;-81
2022/09/13 07:18:28;;;;;;;20.70;14.33;;;17.00;99.90;;;;;;5044463;28;20230;-81
2022/09/13 07:21:00;;;;;;;20.77;13.50;;;17.10;99.90;;;;;;5062007;28;20314;-80
2022/09/13 07:23:26;;;;;;;17.30;13.20;;;17.10;99.90;;;;;;5042711;28;20311;-80
2022/09/13 07:25:54;;;;;;;18.47;13.40;;;17.20;99.90;;;;;;5060433;28;20217;-81
2022/09/13 07:28:22;;;;;;;16.57;12.20;;;17.30;99.90;;;;;;5055817;28;21007;-82
2022/09/13 07:30:49;;;;;;;18.20;13.10;;;17.40;99.90;;;;;;5060726;28;20783;-81
2022/09/13 07:33:16;;;;;;;15.67;11.87;;;17.40;99.90;;;;;;5040496;28;20294;-81
2022/09/13 07:35:42;;;;;;;17.30;11.70;;;17.60;99.90;;;;;;5060671;28;20862;-81
2022/09/13 07:38:09;;;;;;;17.87;12.23;;;17.70;99.90;;;;;;5060420;28;20226;-81
2022/09/13 07:40:39;;;;;;;16.67;11.47;;;17.80;99.90;;;;;;5040009;28;20301;-81
2022/09/13 07:43:05;;;;;;;19.27;10.90;;;17.90;99.90;;;;;;5057995;28;20226;-80
2022/09/13 07:45:36;;;;;;;17.30;10.43;;;18.00;99.90;;;;;;5061529;28;20910;-80
2022/09/13 07:48:03;;;;;;;17.13;9.67;;;18.10;99.90;;;;;;5042051;28;20269;-80
2022/09/13 07:50:29;;;;;;;10.13;8.00;;;18.20;99.90;;;;;;5059888;28;20227;-81
2022/09/13 07:52:56;;;;;;;11.67;8.40;;;18.30;99.90;;;;;;5057797;28;20226;-80
2022/09/13 07:55:23;;;;;;;11.13;7.87;;;18.20;99.90;;;;;;5057205;28;20234;-81
2022/09/13 07:57:49;;;;;;;13.33;7.80;;;18.30;99.90;;;;;;5059510;28;20252;-81
2022/09/13 08:00:17;;;;;;;12.57;7.33;;;18.30;99.90;;;;;;5053887;28;20219;-80
2022/09/13 08:02:45;;;;;;;12.47;7.80;;;18.30;99.90;;;;;;5037044;28;20297;-80
2022/09/13 08:05:13;;;;;;;13.60;7.50;;;18.40;99.90;;;;;;5040557;28;20708;-81
2022/09/13 08:07:39;;;;;;;10.03;6.97;;;18.50;99.90;;;;;;5040921;28;20304;-80
2022/09/13 08:10:08;;;;;;;12.17;7.17;;;18.60;99.90;;;;;;5058520;28;21224;-81
2022/09/13 08:12:37;;;;;;;10.97;6.90;;;18.70;99.90;;;;;;5040732;28;20215;-80
2022/09/13 08:15:05;;;;;;;9.63;5.87;;;18.70;99.90;;;;;;5058970;28;20919;-80
2022/09/13 08:17:31;;;;;;;10.80;6.07;;;18.70;99.90;;;;;;5039847;28;20231;-80
2022/09/13 08:20:00;;;;;;;8.17;5.07;;;18.70;99.90;;;;;;5058128;28;20276;-81
2022/09/13 08:22:26;;;;;;;7.93;4.80;;;18.70;99.90;;;;;;5058835;28;20227;-81
2022/09/13 08:24:53;;;;;;;9.57;4.50;;;18.70;99.90;;;;;;5036444;28;20250;-81
2022/09/13 08:27:22;;;;;;;11.33;5.00;;;18.70;99.90;;;;;;5061407;28;20260;-81
2022/09/13 08:29:49;;;;;;;8.73;4.40;;;18.70;99.90;;;;;;5043157;28;20272;-81
2022/09/13 08:32:16;;;;;;;11.00;3.80;;;18.80;99.90;;;;;;5056778;28;20335;-81
2022/09/13 08:34:42;;;;;;;7.87;3.73;;;18.80;99.90;;;;;;5058832;28;21954;-82
2022/09/13 08:37:11;;;;;;;8.90;3.60;;;18.80;99.90;;;;;;5060176;28;20233;-81
2022/09/13 08:39:38;;;;;;;8.67;3.70;;;18.90;99.90;;;;;;5054241;28;20714;-81
2022/09/13 08:42:22;;;;;;;8.00;3.07;;;18.90;99.90;;;;;;5042885;28;20362;-81
2022/09/13 08:44:52;;;;;;;5.53;2.83;;;18.80;99.90;;;;;;5040983;28;20211;-81
2022/09/13 08:47:31;;;;;;;5.50;2.37;;;18.80;99.90;;;;;;5036049;28;20306;-80
2022/09/13 08:50:06;;;;;;;6.07;2.27;;;18.80;99.90;;;;;;5060451;28;20772;-81
2022/09/13 08:52:41;;;;;;;6.93;1.73;;;18.80;99.90;;;;;;5054098;28;20228;-80
2022/09/13 08:55:23;;;;;;;5.97;2.23;;;18.70;99.90;;;;;;5053788;28;21110;-81
2022/09/13 08:57:59;;;;;;;5.37;1.70;;;18.80;99.90;;;;;;5042489;28;20223;-82
2022/09/13 09:00:33;;;;;;;5.57;1.60;;;18.80;99.90;;;;;;5061850;28;20223;-81
2022/09/13 09:03:17;;;;;;;7.45;1.85;;;18.80;99.90;;;;;;5038242;28;20271;-80
2022/09/13 09:05:47;;;;;;;3.97;1.73;;;18.90;99.90;;;;;;5054870;28;20294;-82
2022/09/13 09:08:27;;;;;;;5.70;1.40;;;18.90;99.90;;;;;;5055801;28;20237;-80
2022/09/13 09:10:55;;;;;;;4.40;1.50;;;19.00;99.90;;;;;;5028451;28;20223;-81
2022/09/13 09:13:29;;;;;;;7.70;1.70;;;19.10;99.90;;;;;;5044202;28;20818;-81
2022/09/13 09:16:00;;;;;;;3.30;1.47;;;19.20;99.90;;;;;;5043038;28;20220;-82
2022/09/13 09:18:31;;;;;;;3.97;1.43;;;19.30;99.90;;;;;;5038324;28;20233;-81
2022/09/13 09:21:02;;;;;;;4.70;1.60;;;19.40;99.90;;;;;;5036851;28;20220;-80
2022/09/13 09:23:37;;;;;;;3.07;1.23;;;19.50;99.90;;;;;;5058886;28;20265;-80
2022/09/13 09:26:15;;;;;;;4.80;1.30;;;19.70;99.90;;;;;;5040980;28;20257;-81
2022/09/13 09:28:43;;;;;;;4.65;1.00;;;19.90;99.90;;;;;;5059354;28;20219;-81
2022/09/13 09:31:15;;;;;;;4.63;1.30;;;20.30;99.90;;;;;;5044249;28;20222;-81
2022/09/13 09:33:54;;;;;;;3.25;1.05;;;20.60;99.90;;;;;;5054154;28;20230;-81
2022/09/13 09:36:32;;;;;;;3.83;0.80;;;20.90;99.90;;;;;;5042399;28;20754;-80
2022/09/13 09:39:03;;;;;;;4.40;0.85;;;21.20;99.50;;;;;;5056450;28;20235;-81
2022/09/13 09:41:33;;;;;;;2.88;0.98;;;21.40;98.60;;;;;;5044415;28;20228;-81
2022/09/13 09:44:16;;;;;;;3.47;0.90;;;21.50;98.70;;;;;;5045760;28;20227;-80
2022/09/13 09:46:46;;;;;;;4.82;1.00;;;21.70;98.10;;;;;;5038563;28;20216;-81
2022/09/13 09:52:07;;;;;;;5.50;1.60;;;22.10;97.00;;;;;;5061664;28;20298;-81
2022/09/13 09:54:36;;;;;;;2.90;1.00;;;22.40;97.10;;;;;;5058180;28;20227;-80
2022/09/13 09:57:05;;;;;;;5.05;1.00;;;22.70;97.10;;;;;;5034741;28;20374;-80
2022/09/13 09:59:33;;;;;;;5.63;1.38;;;22.90;96.70;;;;;;5040458;28;20307;-80
2022/09/13 10:02:03;;;;;;;4.90;0.98;;;23.00;96.00;;;;;;5059383;28;20216;-80
2022/09/13 10:04:30;;;;;;;3.75;1.00;;;23.10;95.30;;;;;;5060366;28;20795;-81
2022/09/13 10:07:20;;;;;;;2.78;0.90;;;23.20;95.00;;;;;;5042542;28;20223;-80
2022/09/13 10:09:58;;;;;;;3.58;0.85;;;23.20;94.70;;;;;;5043037;28;20223;-79
2022/09/13 10:12:31;;;;;;;3.83;1.20;;;23.30;93.90;;;;;;5053368;28;20220;-80
2022/09/13 10:15:05;;;;;;;4.57;1.05;;;23.40;93.80;;;;;;5059605;28;20234;-81
2022/09/13 10:17:32;;;;;;;3.38;1.00;;;23.60;94.20;;;;;;5060886;28;20218;-80
2022/09/13 10:20:03;;;;;;;5.30;1.02;;;23.90;93.50;;;;;;5061093;28;20594;-79
2022/09/13 10:22:31;;;;;;;5.80;1.02;;;24.10;93.20;;;;;;5044096;28;20785;-80
2022/09/13 10:25:14;;;;;;;2.50;1.10;;;24.50;92.80;;;;;;5055703;28;20227;-81
2022/09/13 10:27:43;;;;;;;4.00;1.13;;;24.80;91.90;;;;;;5039352;28;20264;-80
2022/09/13 10:30:32;;;;;;;3.05;0.90;;;25.10;91.60;;;;;;5060269;28;20217;-81
2022/09/13 10:32:59;;;;;;;3.28;0.88;;;25.50;91.10;;;;;;5053042;28;20580;-81
2022/09/13 10:35:26;;;;;;;3.28;0.93;;;25.90;91.30;;;;;;5040973;28;20234;-80
2022/09/13 10:37:53;;;;;;;5.47;1.17;;;26.20;89.60;;;;;;5059492;28;20310;-81
2022/09/13 10:40:26;;;;;;;2.60;0.70;;;26.40;87.30;;;;;;5059267;28;20222;-81
2022/09/13 10:42:57;;;;;;;4.72;1.10;;;26.50;85.50;;;;;;5062062;28;20219;-79
2022/09/13 10:45:26;;;;;;;5.38;1.10;;;26.60;85.30;;;;;;5036656;28;20229;-79
2022/09/13 10:47:55;;;;;;;5.03;1.08;;;26.50;83.30;;;;;;5060984;28;20870;-79
2022/09/13 10:50:24;;;;;;;4.30;0.93;;;26.20;83.50;;;;;;5058205;28;20647;-79
2022/09/13 10:52:52;;;;;;;7.18;1.23;;;25.90;81.80;;;;;;5056570;28;20281;-79
2022/09/13 10:55:36;;;;;;;4.35;1.25;;;25.60;82.10;;;;;;5052517;28;20224;-79
2022/09/13 10:58:16;;;;;;;4.60;1.30;;;25.30;83.40;;;;;;5056478;28;20220;-80
2022/09/13 11:01:10;;;;;;;3.67;1.15;;;25.10;83.70;;;;;;5057531;28;20895;-80
2022/09/13 11:04:03;;;;;;;4.07;1.20;;;25.20;84.50;;;;;;5030175;28;20282;-79
2022/09/13 11:06:41;;;;;;;6.90;1.23;;;25.20;83.80;;;;;;5059859;28;20708;-79
2022/09/13 11:09:13;;;;;;;4.50;1.13;;;25.20;82.90;;;;;;5044728;28;20223;-79
2022/09/13 11:11:50;;;;;;;4.68;1.27;;;25.10;81.50;;;;;;5057333;28;20598;-79
2022/09/13 11:14:44;;;;;;;4.80;0.90;;;25.00;81.20;;;;;;5051360;28;20559;-80
2022/09/13 11:17:21;;;;;;;3.53;1.10;;;24.70;81.10;;;;;;5041762;28;20222;-80
2022/09/13 11:20:14;;;;;;;4.60;1.38;;;24.50;81.90;;;;;;5058585;28;20241;-80
2022/09/13 11:22:57;;;;;;;8.57;1.25;;;24.30;82.20;;;;;;5060205;28;20223;-80
2022/09/13 11:25:44;;;;;;;6.43;1.35;;;24.20;83.70;;;;;;5055134;28;20246;-80
2022/09/13 11:28:20;;;;;;;6.15;1.10;;;24.10;81.60;;;;;;5053211;28;21869;-79
2022/09/13 11:31:12;;;;;;;4.13;1.13;;;24.00;79.90;;;;;;5055414;28;20299;-80
2022/09/13 11:33:48;;;;;;;3.97;1.02;;;23.80;79.60;;;;;;5056335;28;20322;-80
2022/09/13 11:36:38;;;;;;;3.92;1.10;;;23.60;79.70;;;;;;5053570;28;20216;-80
2022/09/13 11:39:18;;;;;;;4.50;1.13;;;23.40;80.10;;;;;;5044959;28;20298;-80
2022/09/13 11:41:54;;;;;;;3.72;0.80;;;23.20;80.70;;;;;;5055632;28;20219;-79
2022/09/13 11:44:51;;;;;;;4.28;1.13;;;23.10;82.30;;;;;;5058194;28;20342;-79
2022/09/13 11:47:33;;;;;;;3.85;0.93;;;23.00;81.50;;;;;;5034631;28;20216;-79
2022/09/13 11:50:14;;;;;;;4.43;0.93;;;23.10;82.80;;;;;;5060862;28;20230;-80
2022/09/13 11:52:51;;;;;;;5.65;1.25;;;23.10;80.70;;;;;;5059184;28;20223;-79
2022/09/13 11:55:21;;;;;;;3.63;0.90;;;23.30;79.60;;;;;;5057852;28;20219;-79
2022/09/13 11:57:52;;;;;;;5.00;1.27;;;23.40;80.30;;;;;;5036103;28;20223;-79
2022/09/13 12:00:22;;;;;;;4.80;1.20;;;23.50;80.30;;;;;;5059609;28;20302;-79
2022/09/13 12:02:58;;;;;;;2.50;1.00;;;23.50;79.40;;;;;;5044522;28;20345;-79
2022/09/13 12:05:27;;;;;;;3.42;0.98;;;23.50;79.30;;;;;;5047419;28;20231;-80
2022/09/13 12:07:59;;;;;;;5.50;1.35;;;23.40;79.70;;;;;;5060037;28;20234;-79
2022/09/13 12:10:29;;;;;;;4.45;1.05;;;23.40;80.20;;;;;;5058685;28;20321;-80
2022/09/13 12:12:59;;;;;;;2.92;0.95;;;23.30;80.00;;;;;;5059529;28;20230;-79
2022/09/13 12:15:36;;;;;;;3.70;0.80;;;23.20;78.30;;;;;;5058745;28;20306;-79
2022/09/13 12:18:09;;;;;;;5.28;1.05;;;23.10;78.50;;;;;;5058838;28;20227;-79
2022/09/13 12:20:38;;;;;;;8.27;1.05;;;23.10;79.10;;;;;;5042514;28;20528;-79
2022/09/13 12:23:11;;;;;;;5.75;1.27;;;23.20;80.20;;;;;;5054595;28;20314;-79
2022/09/13 12:25:46;;;;;;;3.58;0.93;;;23.30;79.80;;;;;;5064745;28;20292;-79
2022/09/13 12:28:19;;;;;;;3.92;1.00;;;23.30;78.70;;;;;;5047708;28;20714;-79
2022/09/13 12:30:52;;;;;;;4.05;1.35;;;23.30;79.30;;;;;;5043538;28;20230;-79
2022/09/13 12:33:19;;;;;;;3.83;0.95;;;23.30;79.00;;;;;;5057831;28;20306;-79
2022/09/13 12:36:00;;;;;;;4.40;1.25;;;23.30;80.10;;;;;;5060818;28;20231;-80
2022/09/13 12:38:58;;;;;;;4.88;1.17;;;23.30;80.00;;;;;;5044196;28;20350;-79
2022/09/13 12:41:35;;;;;;;4.55;1.23;;;23.20;80.70;;;;;;5061092;28;20354;-80
2022/09/13 12:44:31;;;;;;;3.65;1.20;;;23.20;81.50;;;;;;5060512;28;20222;-79
2022/09/13 12:47:19;;;;;;;4.97;1.10;;;23.20;80.00;;;;;;5063993;28;20233;-79
2022/09/13 12:50:00;;;;;;;3.40;1.02;;;23.20;80.00;;;;;;5064654;28;20315;-79
2022/09/13 12:52:36;;;;;;;5.38;1.20;;;23.10;80.30;;;;;;5046327;28;20237;-79
2022/09/13 12:55:20;;;;;;;3.17;1.00;;;23.10;79.40;;;;;;5063708;28;20265;-79
2022/09/13 12:57:57;;;;;;;5.72;1.48;;;23.00;80.70;;;;;;5043120;28;20444;-79
2022/09/13 13:00:27;;;;;;;5.43;1.10;;;23.00;81.00;;;;;;5061247;28;20725;-79
2022/09/13 13:03:10;;;;;;;6.32;1.02;;;23.00;81.30;;;;;;5059166;28;20215;-79
2022/09/13 13:05:42;;;;;;;6.32;1.15;;;23.00;81.20;;;;;;5052102;28;20989;-80
2022/09/13 13:08:25;;;;;;;3.65;1.27;;;23.00;81.20;;;;;;5047518;28;20223;-79